Windermere, United Kingdom
Current Conditions -  °F | °C
As of 11:50 AM on Monday 20 Oct 2014 (Local Time) from EGOM Reporting Station
Light Rain Light Rain  
Wind Chill: 50°   Ceiling: 400
Heat Index: 50°   Visibility: 6mi
Dew Point: 48°   Wind: 22mph
Humidity: 94%   Direction: 260°W
Pressure: 29.77"   Gusts: NA
Location:  54.38°N, 2.91°W
Report Text: EGOM 201050Z 26019KT 9999 -RA BKN004 10/09 Q1008 YLO2
Loading
Personal Weather Stations






























Interactive Weather Map
Tropical Storm Tracking
New forecast layout! Learn more

10-Day Weather Forecast

Advertisements
Track Severe Weather on mobile